sensor_id;sensor_type;location;lat;lon;timestamp;P1;durP1;ratioP1;P2;durP2;ratioP2
22030;SDS011;11179;52.106;21.024;2022-11-20T00:01:17;68.03;;;35.35;;
22030;SDS011;11179;52.106;21.024;2022-11-20T00:03:44;70.97;;;35.17;;
22030;SDS011;11179;52.106;21.024;2022-11-20T00:06:11;82.47;;;38.60;;
22030;SDS011;11179;52.106;21.024;2022-11-20T00:08:39;92.45;;;42.28;;
22030;SDS011;11179;52.106;21.024;2022-11-20T00:11:09;86.68;;;39.95;;
22030;SDS011;11179;52.106;21.024;2022-11-20T00:13:36;81.05;;;39.05;;
22030;SDS011;11179;52.106;21.024;2022-11-20T00:16:02;77.60;;;35.90;;
22030;SDS011;11179;52.106;21.024;2022-11-20T00:18:30;71.28;;;35.45;;
22030;SDS011;11179;52.106;21.024;2022-11-20T00:21:00;68.82;;;35.17;;
22030;SDS011;11179;52.106;21.024;2022-11-20T00:23:30;66.28;;;33.10;;
22030;SDS011;11179;52.106;21.024;2022-11-20T00:25:55;68.05;;;33.55;;
22030;SDS011;11179;52.106;21.024;2022-11-20T00:28:21;67.17;;;36.10;;
22030;SDS011;11179;52.106;21.024;2022-11-20T00:30:46;64.53;;;33.60;;
22030;SDS011;11179;52.106;21.024;2022-11-20T00:33:11;70.13;;;36.03;;
22030;SDS011;11179;52.106;21.024;2022-11-20T00:35:37;77.40;;;37.10;;
22030;SDS011;11179;52.106;21.024;2022-11-20T00:38:02;76.63;;;37.60;;
22030;SDS011;11179;52.106;21.024;2022-11-20T00:40:28;81.90;;;39.20;;
22030;SDS011;11179;52.106;21.024;2022-11-20T00:42:53;72.73;;;36.13;;
22030;SDS011;11179;52.106;21.024;2022-11-20T00:45:19;74.80;;;35.90;;
22030;SDS011;11179;52.106;21.024;2022-11-20T00:47:44;76.47;;;36.40;;
22030;SDS011;11179;52.106;21.024;2022-11-20T00:50:12;64.47;;;32.40;;
22030;SDS011;11179;52.106;21.024;2022-11-20T00:52:38;72.80;;;35.60;;
22030;SDS011;11179;52.106;21.024;2022-11-20T00:55:03;68.00;;;33.83;;
22030;SDS011;11179;52.106;21.024;2022-11-20T00:57:29;75.07;;;38.33;;
22030;SDS011;11179;52.106;21.024;2022-11-20T00:59:54;66.97;;;33.40;;
22030;SDS011;11179;52.106;21.024;2022-11-20T01:02:19;68.87;;;33.57;;
22030;SDS011;11179;52.106;21.024;2022-11-20T01:04:45;76.40;;;35.33;;
22030;SDS011;11179;52.106;21.024;2022-11-20T01:07:10;66.53;;;32.30;;
22030;SDS011;11179;52.106;21.024;2022-11-20T01:09:36;63.80;;;34.60;;
22030;SDS011;11179;52.106;21.024;2022-11-20T01:12:01;66.83;;;33.77;;
22030;SDS011;11179;52.106;21.024;2022-11-20T01:14:26;65.37;;;32.20;;
22030;SDS011;11179;52.106;21.024;2022-11-20T01:16:52;65.57;;;34.10;;
22030;SDS011;11179;52.106;21.024;2022-11-20T01:19:19;65.57;;;34.80;;
22030;SDS011;11179;52.106;21.024;2022-11-20T01:21:46;64.47;;;32.50;;
22030;SDS011;11179;52.106;21.024;2022-11-20T01:24:14;73.35;;;34.45;;
22030;SDS011;11179;52.106;21.024;2022-11-20T01:26:42;66.60;;;32.55;;
22030;SDS011;11179;52.106;21.024;2022-11-20T01:29:19;65.15;;;33.08;;
22030;SDS011;11179;52.106;21.024;2022-11-20T01:31:46;66.05;;;32.20;;
22030;SDS011;11179;52.106;21.024;2022-11-20T01:34:18;66.57;;;32.83;;
22030;SDS011;11179;52.106;21.024;2022-11-20T01:36:44;70.38;;;35.70;;
22030;SDS011;11179;52.106;21.024;2022-11-20T01:39:13;72.22;;;34.92;;
22030;SDS011;11179;52.106;21.024;2022-11-20T01:41:43;72.63;;;34.80;;
22030;SDS011;11179;52.106;21.024;2022-11-20T01:50:37;72.78;;;35.40;;
22030;SDS011;11179;52.106;21.024;2022-11-20T01:52:58;69.65;;;35.83;;
22030;SDS011;11179;52.106;21.024;2022-11-20T01:55:32;70.15;;;35.03;;
22030;SDS011;11179;52.106;21.024;2022-11-20T01:58:04;69.15;;;35.63;;
22030;SDS011;11179;52.106;21.024;2022-11-20T02:00:31;79.97;;;37.60;;
22030;SDS011;11179;52.106;21.024;2022-11-20T02:02:57;74.28;;;36.65;;
22030;SDS011;11179;52.106;21.024;2022-11-20T02:05:31;67.10;;;35.40;;
22030;SDS011;11179;52.106;21.024;2022-11-20T02:08:04;68.47;;;33.33;;
22030;SDS011;11179;52.106;21.024;2022-11-20T02:10:30;71.20;;;37.70;;
22030;SDS011;11179;52.106;21.024;2022-11-20T02:12:57;70.45;;;35.85;;
22030;SDS011;11179;52.106;21.024;2022-11-20T02:15:41;72.22;;;36.17;;
22030;SDS011;11179;52.106;21.024;2022-11-20T02:18:08;67.55;;;33.60;;
22030;SDS011;11179;52.106;21.024;2022-11-20T02:20:34;63.85;;;34.10;;
22030;SDS011;11179;52.106;21.024;2022-11-20T02:23:14;68.33;;;34.83;;
22030;SDS011;11179;52.106;21.024;2022-11-20T02:25:46;70.07;;;35.65;;
22030;SDS011;11179;52.106;21.024;2022-11-20T02:28:12;70.38;;;35.20;;
22030;SDS011;11179;52.106;21.024;2022-11-20T02:30:38;67.53;;;35.23;;
22030;SDS011;11179;52.106;21.024;2022-11-20T02:33:03;69.30;;;34.23;;
22030;SDS011;11179;52.106;21.024;2022-11-20T02:37:54;64.73;;;33.40;;
22030;SDS011;11179;52.106;21.024;2022-11-20T02:40:22;72.00;;;35.80;;
22030;SDS011;11179;52.106;21.024;2022-11-20T02:42:48;72.45;;;37.03;;
22030;SDS011;11179;52.106;21.024;2022-11-20T02:45:17;67.10;;;34.33;;
22030;SDS011;11179;52.106;21.024;2022-11-20T02:47:42;72.93;;;37.10;;
22030;SDS011;11179;52.106;21.024;2022-11-20T02:50:07;81.93;;;37.07;;
22030;SDS011;11179;52.106;21.024;2022-11-20T02:52:33;73.27;;;36.27;;
22030;SDS011;11179;52.106;21.024;2022-11-20T02:54:58;72.10;;;35.67;;
22030;SDS011;11179;52.106;21.024;2022-11-20T02:57:24;67.90;;;34.73;;
22030;SDS011;11179;52.106;21.024;2022-11-20T02:59:49;72.40;;;36.73;;
22030;SDS011;11179;52.106;21.024;2022-11-20T03:02:14;72.90;;;37.47;;
22030;SDS011;11179;52.106;21.024;2022-11-20T03:04:40;80.63;;;40.87;;
22030;SDS011;11179;52.106;21.024;2022-11-20T03:07:05;80.57;;;39.30;;
22030;SDS011;11179;52.106;21.024;2022-11-20T03:09:32;76.53;;;39.03;;
22030;SDS011;11179;52.106;21.024;2022-11-20T03:11:57;79.63;;;37.97;;
22030;SDS011;11179;52.106;21.024;2022-11-20T03:14:23;73.80;;;37.63;;
22030;SDS011;11179;52.106;21.024;2022-11-20T03:16:48;88.77;;;42.50;;
22030;SDS011;11179;52.106;21.024;2022-11-20T03:19:13;78.87;;;39.80;;
22030;SDS011;11179;52.106;21.024;2022-11-20T03:21:39;77.60;;;38.47;;
22030;SDS011;11179;52.106;21.024;2022-11-20T03:24:04;83.07;;;39.30;;
22030;SDS011;11179;52.106;21.024;2022-11-20T03:26:30;82.03;;;39.50;;
22030;SDS011;11179;52.106;21.024;2022-11-20T03:28:59;77.87;;;39.23;;
22030;SDS011;11179;52.106;21.024;2022-11-20T03:31:28;81.15;;;40.17;;
22030;SDS011;11179;52.106;21.024;2022-11-20T03:34:00;73.63;;;37.70;;
22030;SDS011;11179;52.106;21.024;2022-11-20T03:36:27;80.95;;;39.40;;
22030;SDS011;11179;52.106;21.024;2022-11-20T03:38:56;75.03;;;38.85;;
22030;SDS011;11179;52.106;21.024;2022-11-20T03:41:26;85.57;;;40.08;;
22030;SDS011;11179;52.106;21.024;2022-11-20T03:43:54;86.13;;;41.40;;
22030;SDS011;11179;52.106;21.024;2022-11-20T03:46:22;106.22;;;46.47;;
22030;SDS011;11179;52.106;21.024;2022-11-20T03:48:48;76.93;;;38.50;;
22030;SDS011;11179;52.106;21.024;2022-11-20T03:51:18;85.77;;;40.27;;
22030;SDS011;11179;52.106;21.024;2022-11-20T03:53:46;80.65;;;39.38;;
22030;SDS011;11179;52.106;21.024;2022-11-20T03:56:13;81.13;;;35.95;;
22030;SDS011;11179;52.106;21.024;2022-11-20T03:58:41;81.35;;;40.45;;
22030;SDS011;11179;52.106;21.024;2022-11-20T04:03:37;83.00;;;38.70;;
22030;SDS011;11179;52.106;21.024;2022-11-20T04:06:05;79.18;;;38.65;;
22030;SDS011;11179;52.106;21.024;2022-11-20T04:08:31;81.05;;;39.92;;
22030;SDS011;11179;52.106;21.024;2022-11-20T04:11:07;76.67;;;34.80;;
22030;SDS011;11179;52.106;21.024;2022-11-20T04:13:33;81.47;;;38.65;;
22030;SDS011;11179;52.106;21.024;2022-11-20T04:15:58;78.47;;;36.73;;
22030;SDS011;11179;52.106;21.024;2022-11-20T04:18:24;77.87;;;37.50;;
22030;SDS011;11179;52.106;21.024;2022-11-20T04:20:49;73.97;;;35.77;;
22030;SDS011;11179;52.106;21.024;2022-11-20T04:23:14;78.70;;;37.83;;
22030;SDS011;11179;52.106;21.024;2022-11-20T04:25:40;73.50;;;36.60;;
22030;SDS011;11179;52.106;21.024;2022-11-20T04:28:05;78.50;;;36.23;;
22030;SDS011;11179;52.106;21.024;2022-11-20T04:30:30;78.00;;;37.70;;
22030;SDS011;11179;52.106;21.024;2022-11-20T04:32:56;79.93;;;37.30;;
22030;SDS011;11179;52.106;21.024;2022-11-20T04:35:21;73.23;;;34.13;;
22030;SDS011;11179;52.106;21.024;2022-11-20T04:37:46;69.50;;;35.23;;
22030;SDS011;11179;52.106;21.024;2022-11-20T04:40:12;77.33;;;37.40;;
22030;SDS011;11179;52.106;21.024;2022-11-20T04:42:37;73.47;;;36.03;;
22030;SDS011;11179;52.106;21.024;2022-11-20T04:45:03;79.53;;;37.00;;
22030;SDS011;11179;52.106;21.024;2022-11-20T04:47:28;85.13;;;37.83;;
22030;SDS011;11179;52.106;21.024;2022-11-20T04:49:53;83.20;;;38.93;;
22030;SDS011;11179;52.106;21.024;2022-11-20T04:52:19;75.70;;;35.53;;
22030;SDS011;11179;52.106;21.024;2022-11-20T04:54:44;70.03;;;35.07;;
22030;SDS011;11179;52.106;21.024;2022-11-20T04:57:09;75.13;;;36.67;;
22030;SDS011;11179;52.106;21.024;2022-11-20T04:59:35;79.80;;;38.37;;
22030;SDS011;11179;52.106;21.024;2022-11-20T05:02:00;75.43;;;35.37;;
22030;SDS011;11179;52.106;21.024;2022-11-20T05:04:25;75.00;;;35.63;;
22030;SDS011;11179;52.106;21.024;2022-11-20T05:06:51;69.67;;;33.70;;
22030;SDS011;11179;52.106;21.024;2022-11-20T05:09:16;82.63;;;37.77;;
22030;SDS011;11179;52.106;21.024;2022-11-20T05:11:41;78.67;;;36.37;;
22030;SDS011;11179;52.106;21.024;2022-11-20T05:14:07;70.83;;;34.77;;
22030;SDS011;11179;52.106;21.024;2022-11-20T05:16:33;75.10;;;35.67;;
22030;SDS011;11179;52.106;21.024;2022-11-20T05:19:00;68.00;;;34.55;;
22030;SDS011;11179;52.106;21.024;2022-11-20T05:21:25;80.53;;;35.27;;
22030;SDS011;11179;52.106;21.024;2022-11-20T05:23:50;75.77;;;35.03;;
22030;SDS011;11179;52.106;21.024;2022-11-20T05:26:20;72.20;;;33.77;;
22030;SDS011;11179;52.106;21.024;2022-11-20T05:28:47;67.85;;;34.58;;
22030;SDS011;11179;52.106;21.024;2022-11-20T05:31:20;71.97;;;34.55;;
22030;SDS011;11179;52.106;21.024;2022-11-20T05:33:47;68.60;;;34.30;;
22030;SDS011;11179;52.106;21.024;2022-11-20T05:36:14;68.57;;;35.40;;
22030;SDS011;11179;52.106;21.024;2022-11-20T05:38:40;77.40;;;36.20;;
22030;SDS011;11179;52.106;21.024;2022-11-20T05:41:10;73.88;;;35.92;;
22030;SDS011;11179;52.106;21.024;2022-11-20T05:43:38;70.22;;;35.55;;
22030;SDS011;11179;52.106;21.024;2022-11-20T05:46:05;70.47;;;34.72;;
22030;SDS011;11179;52.106;21.024;2022-11-20T05:48:32;69.70;;;34.70;;
22030;SDS011;11179;52.106;21.024;2022-11-20T05:50:58;69.07;;;35.03;;
22030;SDS011;11179;52.106;21.024;2022-11-20T05:53:24;68.40;;;34.88;;
22030;SDS011;11179;52.106;21.024;2022-11-20T05:55:56;74.03;;;34.60;;
22030;SDS011;11179;52.106;21.024;2022-11-20T05:58:25;64.78;;;33.70;;
22030;SDS011;11179;52.106;21.024;2022-11-20T06:00:51;67.43;;;33.55;;
22030;SDS011;11179;52.106;21.024;2022-11-20T06:03:16;73.27;;;35.07;;
22030;SDS011;11179;52.106;21.024;2022-11-20T06:05:42;71.63;;;36.60;;
22030;SDS011;11179;52.106;21.024;2022-11-20T06:08:07;72.53;;;35.00;;
22030;SDS011;11179;52.106;21.024;2022-11-20T06:10:32;73.13;;;35.50;;
22030;SDS011;11179;52.106;21.024;2022-11-20T06:12:58;74.37;;;35.93;;
22030;SDS011;11179;52.106;21.024;2022-11-20T06:15:23;72.70;;;36.57;;
22030;SDS011;11179;52.106;21.024;2022-11-20T06:17:51;81.70;;;36.27;;
22030;SDS011;11179;52.106;21.024;2022-11-20T06:20:18;78.45;;;37.05;;
22030;SDS011;11179;52.106;21.024;2022-11-20T06:22:50;74.53;;;35.90;;
22030;SDS011;11179;52.106;21.024;2022-11-20T06:25:15;78.68;;;38.88;;
22030;SDS011;11179;52.106;21.024;2022-11-20T06:27:40;81.90;;;39.30;;
22030;SDS011;11179;52.106;21.024;2022-11-20T06:30:06;80.70;;;40.50;;
22030;SDS011;11179;52.106;21.024;2022-11-20T06:32:32;85.80;;;41.33;;
22030;SDS011;11179;52.106;21.024;2022-11-20T06:34:58;79.77;;;39.83;;
22030;SDS011;11179;52.106;21.024;2022-11-20T06:37:23;74.53;;;36.13;;
22030;SDS011;11179;52.106;21.024;2022-11-20T06:39:48;83.20;;;40.73;;
22030;SDS011;11179;52.106;21.024;2022-11-20T06:42:13;77.80;;;39.43;;
22030;SDS011;11179;52.106;21.024;2022-11-20T06:44:39;81.70;;;39.30;;
22030;SDS011;11179;52.106;21.024;2022-11-20T06:47:04;83.17;;;40.03;;
22030;SDS011;11179;52.106;21.024;2022-11-20T06:49:29;73.63;;;38.30;;
22030;SDS011;11179;52.106;21.024;2022-11-20T06:51:55;69.57;;;36.10;;
22030;SDS011;11179;52.106;21.024;2022-11-20T06:54:20;78.87;;;40.53;;
22030;SDS011;11179;52.106;21.024;2022-11-20T06:56:46;81.90;;;40.00;;
22030;SDS011;11179;52.106;21.024;2022-11-20T06:59:13;80.50;;;39.63;;
22030;SDS011;11179;52.106;21.024;2022-11-20T07:01:38;83.20;;;39.37;;
22030;SDS011;11179;52.106;21.024;2022-11-20T07:04:03;85.50;;;43.90;;
22030;SDS011;11179;52.106;21.024;2022-11-20T07:06:29;90.80;;;46.20;;
22030;SDS011;11179;52.106;21.024;2022-11-20T07:12:16;82.15;;;41.60;;
22030;SDS011;11179;52.106;21.024;2022-11-20T07:14:44;88.80;;;44.45;;
22030;SDS011;11179;52.106;21.024;2022-11-20T07:17:09;94.00;;;44.37;;
22030;SDS011;11179;52.106;21.024;2022-11-20T07:19:34;91.67;;;44.70;;
22030;SDS011;11179;52.106;21.024;2022-11-20T07:22:00;89.93;;;44.93;;
22030;SDS011;11179;52.106;21.024;2022-11-20T07:24:25;87.67;;;40.37;;
22030;SDS011;11179;52.106;21.024;2022-11-20T07:26:50;77.43;;;39.80;;
22030;SDS011;11179;52.106;21.024;2022-11-20T07:29:16;80.33;;;39.73;;
22030;SDS011;11179;52.106;21.024;2022-11-20T07:31:42;67.17;;;36.67;;
22030;SDS011;11179;52.106;21.024;2022-11-20T07:34:08;77.33;;;37.47;;
22030;SDS011;11179;52.106;21.024;2022-11-20T07:36:33;78.77;;;39.13;;
22030;SDS011;11179;52.106;21.024;2022-11-20T07:38:59;70.67;;;36.20;;
22030;SDS011;11179;52.106;21.024;2022-11-20T07:41:24;70.63;;;36.07;;
22030;SDS011;11179;52.106;21.024;2022-11-20T07:43:50;66.73;;;34.70;;
22030;SDS011;11179;52.106;21.024;2022-11-20T07:46:15;67.83;;;34.70;;
22030;SDS011;11179;52.106;21.024;2022-11-20T07:48:40;68.97;;;35.13;;
22030;SDS011;11179;52.106;21.024;2022-11-20T07:51:06;70.17;;;35.87;;
22030;SDS011;11179;52.106;21.024;2022-11-20T07:53:31;72.30;;;34.50;;
22030;SDS011;11179;52.106;21.024;2022-11-20T07:56:00;64.83;;;34.97;;
22030;SDS011;11179;52.106;21.024;2022-11-20T07:58:26;62.50;;;32.55;;
22030;SDS011;11179;52.106;21.024;2022-11-20T08:00:54;61.33;;;31.50;;
22030;SDS011;11179;52.106;21.024;2022-11-20T08:03:19;63.17;;;31.97;;
22030;SDS011;11179;52.106;21.024;2022-11-20T08:05:45;59.50;;;31.37;;
22030;SDS011;11179;52.106;21.024;2022-11-20T08:08:10;63.47;;;32.63;;
22030;SDS011;11179;52.106;21.024;2022-11-20T08:10:35;62.03;;;31.73;;
22030;SDS011;11179;52.106;21.024;2022-11-20T08:13:01;63.23;;;33.30;;
22030;SDS011;11179;52.106;21.024;2022-11-20T08:15:47;71.22;;;34.63;;
22030;SDS011;11179;52.106;21.024;2022-11-20T08:18:15;68.90;;;34.80;;
22030;SDS011;11179;52.106;21.024;2022-11-20T08:20:42;66.05;;;33.38;;
22030;SDS011;11179;52.106;21.024;2022-11-20T08:23:08;72.40;;;35.73;;
22030;SDS011;11179;52.106;21.024;2022-11-20T08:25:34;75.63;;;36.57;;
22030;SDS011;11179;52.106;21.024;2022-11-20T08:28:02;70.57;;;34.13;;
22030;SDS011;11179;52.106;21.024;2022-11-20T08:30:29;66.80;;;34.35;;
22030;SDS011;11179;52.106;21.024;2022-11-20T08:32:59;67.43;;;36.40;;
22030;SDS011;11179;52.106;21.024;2022-11-20T08:35:26;67.22;;;33.25;;
22030;SDS011;11179;52.106;21.024;2022-11-20T08:37:51;74.73;;;36.30;;
22030;SDS011;11179;52.106;21.024;2022-11-20T08:40:17;71.37;;;37.00;;
22030;SDS011;11179;52.106;21.024;2022-11-20T08:42:49;75.50;;;37.60;;
22030;SDS011;11179;52.106;21.024;2022-11-20T08:45:15;72.75;;;37.63;;
22030;SDS011;11179;52.106;21.024;2022-11-20T08:47:42;77.72;;;38.03;;
22030;SDS011;11179;52.106;21.024;2022-11-20T08:50:08;72.15;;;34.88;;
22030;SDS011;11179;52.106;21.024;2022-11-20T08:52:34;77.47;;;37.00;;
22030;SDS011;11179;52.106;21.024;2022-11-20T08:55:00;71.03;;;35.00;;
22030;SDS011;11179;52.106;21.024;2022-11-20T08:57:25;68.87;;;36.93;;
22030;SDS011;11179;52.106;21.024;2022-11-20T08:59:50;74.10;;;35.90;;
22030;SDS011;11179;52.106;21.024;2022-11-20T09:02:16;65.50;;;34.60;;
22030;SDS011;11179;52.106;21.024;2022-11-20T09:04:41;73.03;;;36.00;;
22030;SDS011;11179;52.106;21.024;2022-11-20T09:07:07;72.63;;;36.80;;
22030;SDS011;11179;52.106;21.024;2022-11-20T09:09:32;67.97;;;34.50;;
22030;SDS011;11179;52.106;21.024;2022-11-20T09:11:58;74.33;;;36.23;;
22030;SDS011;11179;52.106;21.024;2022-11-20T09:14:23;75.47;;;35.50;;
22030;SDS011;11179;52.106;21.024;2022-11-20T09:16:54;68.38;;;35.85;;
22030;SDS011;11179;52.106;21.024;2022-11-20T09:19:23;71.72;;;36.03;;
22030;SDS011;11179;52.106;21.024;2022-11-20T09:21:49;71.00;;;35.78;;
22030;SDS011;11179;52.106;21.024;2022-11-20T09:24:14;66.13;;;33.63;;
22030;SDS011;11179;52.106;21.024;2022-11-20T09:26:40;69.77;;;34.70;;
22030;SDS011;11179;52.106;21.024;2022-11-20T09:29:05;61.10;;;31.77;;
22030;SDS011;11179;52.106;21.024;2022-11-20T09:31:31;73.10;;;36.07;;
22030;SDS011;11179;52.106;21.024;2022-11-20T09:33:56;69.17;;;35.30;;
22030;SDS011;11179;52.106;21.024;2022-11-20T09:36:22;70.40;;;35.23;;
22030;SDS011;11179;52.106;21.024;2022-11-20T09:38:47;75.80;;;34.37;;
22030;SDS011;11179;52.106;21.024;2022-11-20T09:41:30;65.95;;;34.63;;
22030;SDS011;11179;52.106;21.024;2022-11-20T09:47:02;78.03;;;36.30;;
22030;SDS011;11179;52.106;21.024;2022-11-20T09:55:38;64.90;;;32.00;;
22030;SDS011;11179;52.106;21.024;2022-11-20T09:58:07;73.18;;;33.55;;
22030;SDS011;11179;52.106;21.024;2022-11-20T10:01:00;59.20;;;31.20;;
22030;SDS011;11179;52.106;21.024;2022-11-20T10:06:10;65.10;;;32.20;;
22030;SDS011;11179;52.106;21.024;2022-11-20T10:08:41;63.05;;;31.38;;
22030;SDS011;11179;52.106;21.024;2022-11-20T10:30:02;62.97;;;30.52;;
22030;SDS011;11179;52.106;21.024;2022-11-20T10:32:36;68.80;;;32.65;;
22030;SDS011;11179;52.106;21.024;2022-11-20T10:35:16;57.92;;;29.33;;
22030;SDS011;11179;52.106;21.024;2022-11-20T10:37:57;61.70;;;29.83;;
22030;SDS011;11179;52.106;21.024;2022-11-20T10:40:35;64.25;;;30.38;;
22030;SDS011;11179;52.106;21.024;2022-11-20T10:43:08;68.35;;;31.40;;
22030;SDS011;11179;52.106;21.024;2022-11-20T10:48:25;66.78;;;28.90;;
22030;SDS011;11179;52.106;21.024;2022-11-20T10:59:15;67.80;;;32.42;;
22030;SDS011;11179;52.106;21.024;2022-11-20T11:02:13;67.95;;;33.80;;
22030;SDS011;11179;52.106;21.024;2022-11-20T11:04:40;64.97;;;29.85;;
22030;SDS011;11179;52.106;21.024;2022-11-20T11:07:12;57.75;;;29.10;;
22030;SDS011;11179;52.106;21.024;2022-11-20T11:09:43;73.53;;;31.00;;
22030;SDS011;11179;52.106;21.024;2022-11-20T11:12:12;73.35;;;30.70;;
22030;SDS011;11179;52.106;21.024;2022-11-20T11:14:45;66.47;;;31.75;;
22030;SDS011;11179;52.106;21.024;2022-11-20T11:17:23;59.20;;;30.42;;
22030;SDS011;11179;52.106;21.024;2022-11-20T11:22:24;62.67;;;29.27;;
22030;SDS011;11179;52.106;21.024;2022-11-20T11:24:52;61.10;;;27.87;;
22030;SDS011;11179;52.106;21.024;2022-11-20T11:27:18;61.95;;;27.05;;
22030;SDS011;11179;52.106;21.024;2022-11-20T11:29:43;60.63;;;26.07;;
22030;SDS011;11179;52.106;21.024;2022-11-20T11:34:39;51.25;;;24.75;;
22030;SDS011;11179;52.106;21.024;2022-11-20T11:37:05;55.07;;;27.93;;
22030;SDS011;11179;52.106;21.024;2022-11-20T11:39:41;50.92;;;24.40;;
22030;SDS011;11179;52.106;21.024;2022-11-20T11:42:07;58.35;;;26.55;;
22030;SDS011;11179;52.106;21.024;2022-11-20T11:44:37;59.08;;;26.77;;
22030;SDS011;11179;52.106;21.024;2022-11-20T11:47:43;56.42;;;26.52;;
22030;SDS011;11179;52.106;21.024;2022-11-20T11:55:20;66.32;;;27.40;;
22030;SDS011;11179;52.106;21.024;2022-11-20T12:04:05;54.83;;;25.05;;
22030;SDS011;11179;52.106;21.024;2022-11-20T12:06:38;57.60;;;28.75;;
22030;SDS011;11179;52.106;21.024;2022-11-20T12:09:09;50.25;;;26.55;;
22030;SDS011;11179;52.106;21.024;2022-11-20T12:11:46;53.20;;;24.33;;
22030;SDS011;11179;52.106;21.024;2022-11-20T12:16:49;58.35;;;26.20;;
22030;SDS011;11179;52.106;21.024;2022-11-20T12:19:15;54.13;;;25.70;;
22030;SDS011;11179;52.106;21.024;2022-11-20T12:37:47;51.30;;;24.47;;
22030;SDS011;11179;52.106;21.024;2022-11-20T12:43:22;55.58;;;26.17;;
22030;SDS011;11179;52.106;21.024;2022-11-20T12:46:10;61.10;;;27.67;;
22030;SDS011;11179;52.106;21.024;2022-11-20T12:48:50;48.25;;;24.60;;
22030;SDS011;11179;52.106;21.024;2022-11-20T13:07:58;50.53;;;23.77;;
22030;SDS011;11179;52.106;21.024;2022-11-20T13:16:29;47.58;;;23.23;;
22030;SDS011;11179;52.106;21.024;2022-11-20T13:19:03;49.90;;;23.85;;
22030;SDS011;11179;52.106;21.024;2022-11-20T13:21:40;56.65;;;26.13;;
22030;SDS011;11179;52.106;21.024;2022-11-20T13:29:25;58.35;;;24.98;;
22030;SDS011;11179;52.106;21.024;2022-11-20T13:32:00;50.83;;;26.70;;
22030;SDS011;11179;52.106;21.024;2022-11-20T13:34:31;49.72;;;25.10;;
22030;SDS011;11179;52.106;21.024;2022-11-20T13:36:57;51.33;;;24.53;;
22030;SDS011;11179;52.106;21.024;2022-11-20T13:39:43;53.03;;;24.02;;
22030;SDS011;11179;52.106;21.024;2022-11-20T13:44:45;53.03;;;26.08;;
22030;SDS011;11179;52.106;21.024;2022-11-20T13:47:26;60.80;;;27.08;;
22030;SDS011;11179;52.106;21.024;2022-11-20T13:49:53;55.55;;;27.55;;
22030;SDS011;11179;52.106;21.024;2022-11-20T14:00:26;60.33;;;29.73;;
22030;SDS011;11179;52.106;21.024;2022-11-20T14:03:15;60.33;;;30.27;;
22030;SDS011;11179;52.106;21.024;2022-11-20T14:05:57;61.03;;;28.77;;
22030;SDS011;11179;52.106;21.024;2022-11-20T14:08:31;79.07;;;35.45;;
22030;SDS011;11179;52.106;21.024;2022-11-20T14:11:22;71.65;;;33.22;;
22030;SDS011;11179;52.106;21.024;2022-11-20T14:14:03;65.60;;;32.00;;
22030;SDS011;11179;52.106;21.024;2022-11-20T14:16:42;66.57;;;33.35;;
22030;SDS011;11179;52.106;21.024;2022-11-20T14:19:42;66.80;;;33.53;;
22030;SDS011;11179;52.106;21.024;2022-11-20T14:22:21;62.42;;;31.38;;
22030;SDS011;11179;52.106;21.024;2022-11-20T14:24:49;62.58;;;31.77;;
22030;SDS011;11179;52.106;21.024;2022-11-20T14:27:26;68.38;;;33.33;;
22030;SDS011;11179;52.106;21.024;2022-11-20T14:29:52;62.53;;;30.57;;
22030;SDS011;11179;52.106;21.024;2022-11-20T14:32:19;68.40;;;32.10;;
22030;SDS011;11179;52.106;21.024;2022-11-20T14:34:47;77.93;;;36.78;;
22030;SDS011;11179;52.106;21.024;2022-11-20T14:37:24;80.32;;;36.95;;
22030;SDS011;11179;52.106;21.024;2022-11-20T14:39:54;76.10;;;36.95;;
22030;SDS011;11179;52.106;21.024;2022-11-20T14:42:22;73.00;;;36.28;;
22030;SDS011;11179;52.106;21.024;2022-11-20T14:44:52;75.15;;;37.88;;
22030;SDS011;11179;52.106;21.024;2022-11-20T14:47:22;75.18;;;37.03;;
22030;SDS011;11179;52.106;21.024;2022-11-20T14:49:50;77.03;;;37.42;;
22030;SDS011;11179;52.106;21.024;2022-11-20T14:52:18;84.72;;;39.50;;
22030;SDS011;11179;52.106;21.024;2022-11-20T14:54:47;77.85;;;40.13;;
22030;SDS011;11179;52.106;21.024;2022-11-20T14:57:20;76.25;;;37.13;;
22030;SDS011;11179;52.106;21.024;2022-11-20T14:59:46;79.53;;;39.17;;
22030;SDS011;11179;52.106;21.024;2022-11-20T15:02:12;70.63;;;36.33;;
22030;SDS011;11179;52.106;21.024;2022-11-20T15:04:45;74.60;;;38.35;;
22030;SDS011;11179;52.106;21.024;2022-11-20T15:07:11;78.50;;;37.42;;
22030;SDS011;11179;52.106;21.024;2022-11-20T15:12:32;74.50;;;38.17;;
22030;SDS011;11179;52.106;21.024;2022-11-20T15:15:00;77.40;;;36.88;;
22030;SDS011;11179;52.106;21.024;2022-11-20T15:17:26;68.80;;;35.45;;
22030;SDS011;11179;52.106;21.024;2022-11-20T15:19:52;72.67;;;35.40;;
22030;SDS011;11179;52.106;21.024;2022-11-20T15:22:19;75.53;;;38.30;;
22030;SDS011;11179;52.106;21.024;2022-11-20T15:24:44;79.40;;;38.90;;
22030;SDS011;11179;52.106;21.024;2022-11-20T15:27:10;73.65;;;38.10;;
22030;SDS011;11179;52.106;21.024;2022-11-20T15:29:36;78.13;;;38.80;;
22030;SDS011;11179;52.106;21.024;2022-11-20T15:32:02;81.50;;;39.70;;
22030;SDS011;11179;52.106;21.024;2022-11-20T15:34:28;81.95;;;38.63;;
22030;SDS011;11179;52.106;21.024;2022-11-20T15:36:53;80.83;;;40.10;;
22030;SDS011;11179;52.106;21.024;2022-11-20T15:39:19;90.50;;;41.77;;
22030;SDS011;11179;52.106;21.024;2022-11-20T15:41:45;92.88;;;43.75;;
22030;SDS011;11179;52.106;21.024;2022-11-20T15:44:11;94.93;;;43.77;;
22030;SDS011;11179;52.106;21.024;2022-11-20T15:46:37;87.90;;;40.43;;
22030;SDS011;11179;52.106;21.024;2022-11-20T15:49:10;85.68;;;41.03;;
22030;SDS011;11179;52.106;21.024;2022-11-20T15:51:38;90.47;;;43.65;;
22030;SDS011;11179;52.106;21.024;2022-11-20T15:54:16;88.15;;;41.75;;
22030;SDS011;11179;52.106;21.024;2022-11-20T15:56:45;88.72;;;41.13;;
22030;SDS011;11179;52.106;21.024;2022-11-20T15:59:13;77.15;;;38.90;;
22030;SDS011;11179;52.106;21.024;2022-11-20T16:01:40;82.30;;;41.28;;
22030;SDS011;11179;52.106;21.024;2022-11-20T16:04:09;88.93;;;42.47;;
22030;SDS011;11179;52.106;21.024;2022-11-20T16:06:42;82.20;;;38.58;;
22030;SDS011;11179;52.106;21.024;2022-11-20T16:09:07;78.68;;;40.03;;
22030;SDS011;11179;52.106;21.024;2022-11-20T16:11:33;82.10;;;41.50;;
22030;SDS011;11179;52.106;21.024;2022-11-20T16:14:01;82.15;;;40.20;;
22030;SDS011;11179;52.106;21.024;2022-11-20T16:16:45;80.70;;;40.75;;
22030;SDS011;11179;52.106;21.024;2022-11-20T16:19:11;85.33;;;43.20;;
22030;SDS011;11179;52.106;21.024;2022-11-20T16:21:37;86.40;;;42.65;;
22030;SDS011;11179;52.106;21.024;2022-11-20T16:24:05;87.70;;;42.80;;
22030;SDS011;11179;52.106;21.024;2022-11-20T16:26:35;87.97;;;42.92;;
22030;SDS011;11179;52.106;21.024;2022-11-20T16:29:00;94.35;;;44.67;;
22030;SDS011;11179;52.106;21.024;2022-11-20T16:31:27;88.10;;;42.15;;